AirNav   Everest Fuels
 
 886 users online  

05S Vernonia Municipal Airport
Vernonia, Oregon, USA

GOING TO VERNONIA?


FAA INFORMATION EFFECTIVE 31 JANUARY 2019

Location

FAA Identifier: 05S
Lat/Long: 45-51-07.5825N / 123-14-34.3295W
45-51.126375N / 123-14.572158W
45.8521062 / -123.2428693
(estimated)
Elevation: 650 ft. / 198.1 m (surveyed)
Variation: 20E (1985)
From city: 2 miles W of VERNONIA, OR
Time zone: UTC -8 (UTC -7 during Daylight Saving Time)
Zip code: 97064

Airport Operations

Airport use: Open to the public
Activation date: 12/1938
Control tower: no
ARTCC: SEATTLE CENTER
FSS: MC MINNVILLE FLIGHT SERVICE STATION
NOTAMs facility: MMV (NOTAM-D service available)
Attendance: UNATNDD
Wind indicator: yes
Segmented circle: no

Airport Communications

CTAF: 122.9
WX ASOS at SPB (17 nm E): 135.875 (503-543-6401)

Nearby radio navigation aids

VOR radial/distance  VOR name  Freq  Var
BTGr262/28.0BATTLE GROUND VORTAC116.6021E
UBGr319/31.9NEWBERG VOR/DME117.4021E
ASTr110/32.4ASTORIA VOR/DME114.0015E

 
NDB name  Hdg/Dist  Freq  Var  ID
BANKS312/15.735616EPND .--. -. -..
KELSO200/22.825617ELSO .-.. ... ---

Airport Services

Parking: tiedowns
Airframe service: NONE
Powerplant service: NONE
Bottled oxygen: NONE
Bulk oxygen: NONE

Runway Information

Runway 9/27

Dimensions: 2940 x 45 ft. / 896 x 14 m
Surface: turf, in good condition
RUNWAY 9  RUNWAY 27
Latitude: 45-51.231582N45-51.021167N
Longitude: 123-14.884150W123-14.260167W
Elevation: 647.0 ft.650.0 ft.
Gradient: 0.4%0.4%
Traffic pattern: rightleft
Runway heading: 096 magnetic, 116 true276 magnetic, 296 true
Obstructions: 4 ft. fence
BEYOND FENCE, OBSTRUCTION CLEARANCE SLOPE IS 9:1.
175 ft. hill, 775 ft. from runway, 200 ft. right of centerline, 4:1 slope to clear

Airport Ownership and Management from official FAA records

Ownership: Publicly-owned
Owner: CITY OF VERNONIA
1001 BRIDGE AVE
VERNONIA, OR 97064
Phone 503-429-5291
Manager: MICHAEL SEAGER
536 1ST AVE.
VERNONIA, OR 97064
Phone 503-429-1562

Airport Operational Statistics

Aircraft based on the field: 5
Single engine airplanes: 5
    
Aircraft operations: avg 57/week *
50% transient general aviation
50% local general aviation
* for 12-month period ending 28 February 2016

Additional Remarks

HANGARS 100 FT RIGHT OF CNTRLN ON AER 27.
RY 27 HAS MULTIPLE OBSTRUCTIONS WITHIN 1000 FT E. CURVED APCH FM THE SOUTHEAST RECOMMENDED.
RY 09 4FT FENCE AT RY END MARKED BY ORANGE PYLONS.
RY 27 10 FT ROAD 10 FT FROM RY END.
DEER AND ELK ON AND IN VICINITY OF AIRPORT
FOR CD CTC P80 APCH AT 503-493-7545.

Instrument Procedures

There are no published instrument procedures at 05S.

Some nearby airports with instrument procedures:

KSPB - Scappoose Industrial Airpark (17 nm E)
KKLS - Southwest Washington Regional Airport (21 nm NE)
KHIO - Portland-Hillsboro Airport (22 nm SE)
KVUO - Pearson Field Airport (28 nm SE)
KPDX - Portland International Airport (31 nm SE)
 
Loc | Ops | Rwys | IFR | FBO | Links
Com | Nav | Svcs | Stats | Notes
Area around 05S (Vernonia Municipal Airport)
 
Road maps at: MapQuest Bing Google
 
Aerial photo
WARNING: Photo may not be current or correct
Aerial photo of 05S (Vernonia Municipal Airport)
Do you have a better or more recent aerial photo of Vernonia Municipal Airport that you would like to share? If so, please send us your photo.

 
Sectional chart

 
Airport distance calculator
Flying to Vernonia Municipal Airport? Find the distance to fly.

From to 05S

Sunrise and sunset
Times for 22-Feb-2019
 Local
(UTC-8)
 Zulu
(UTC)
Morning civil twilight06:3514:35
Sunrise07:0515:05
Sunset17:4801:48
Evening civil twilight18:1802:18

Current date and time
Zulu (UTC)  23-Feb-2019 01:47:01
Local (UTC-8)  22-Feb-2019 17:47:01
 
METAR
KSPB 
17nm E 
230121Z AUTO 02004KT 8SM -RA BKN010 OVC027 05/03 A3002 RMK AO2 P0001 T00500033
KKLS 
21nm NE 
230056Z AUTO 15005KT 10SM -RA FEW008 OVC019 03/02 A3003 RMK AO2 UPE24RAB24 SLP175 P0004 T00280017
KHIO 
22nm SE 
230101Z 00000KT 10SM -RA BKN012 OVC022 05/03 A3002 RMK AO2 P0001 T00500033
KVUO 
29nm SE 
230124Z AUTO 16004KT 5SM -RA BR SCT026 BKN034 OVC043 04/03 A3003 RMK AO2 P0002 T00440028
KPDX 
31nm SE 
230138Z 20011KT 4SM -RA BR FEW017 BKN030 OVC043 04/02 A3003 RMK AO2 P0005 T00440022
KAST 
32nm NW 
230055Z AUTO 25004KT 10SM SCT036 SCT060 BKN080 06/04 A2999 RMK AO2 SLP154 T00610044
TAF
KHIO 
22nm SE 
222205Z 2222/2318 17011KT P6SM -SHRA SCT045 OVC090 FM222300 18011KT 6SM -RA BKN025 OVC040 FM230000 20009KT 4SM -RA BKN015 OVC025 FM230300 22005KT P6SM VCSH SCT025 BKN040
NOTAMs
Click for the latest NOTAMs
NOTAMs are issued by the DoD/FAA and will open in a separate window not controlled by AirNav.

 

 
 

Would you like to see your business listed on this page?

 If your business provides an interesting product or service to pilots, flight crews, aircraft, or users of the Vernonia Municipal Airport, you should consider listing it here.  To start the listing process, click on the button below
 
Add a business
 

Other Pages about Vernonia Municipal Airport

Update a link
 
Copyright © AirNav, LLC. All rights reserved. Privacy Policy  Contact